Check out our new PWSWeather beta!
PWSweather.com
Personal Weather Stations
Station Observations
KVAGLENALL
West Henrico, Glen Allen, VA 23060-6503

West HenricoGlen Allen, VA 23060-6503

Lat: 37.6554, Lon: -77.5693

Elevation: 273

Station Type: Davis Vantage Pro II

www.glenallenweather.com

High Low Average
Temperature 85.9°F29.9°C 64.2°F17.9°C 73.6°F23.1°C
Dew Point 73.1°F22.8°C 59.4°F15.2°C 65.5°F18.6°C
Winds 9.0 mph 14.5 kmh Calm Calm 3.0 mph SE4.8 kmh SE
Wind Gusts 10.1 mph16.3 kmh 3.0 mph4.8 kmh 5.0 mph8.0 kmh
Humidity 95% 48% 77%
Pressure 30.30 in1026.1 mb 30.15 in1021.0 mb -
Precipitation 0.00 in0.0 mm - -
Hour Temp Dew Point Humidity Winds Wind Gusts Pressure Precip Precip Rate Daily Precip Total
12:30 AM 69.5°F20.8°C 65.4°F18.6°C 87% 1.0 mph E1.6 kmh E 3.0 mph4.8 kmh 30.22 in1023.4 mb 0.00 in0.0 mm 0.00 in0.0 mm 0.00 in0.0 mm
01:30 AM 68.1°F20.1°C 64.8°F18.2°C 89% 1.0 mph SE1.6 kmh SE 3.0 mph4.8 kmh 30.22 in1023.4 mb 0.00 in0.0 mm 0.00 in0.0 mm 0.00 in0.0 mm
02:30 AM 67.0°F19.4°C 64.3°F17.9°C 91% 2.0 mph ESE3.2 kmh ESE 6.1 mph9.8 kmh 30.22 in1023.4 mb 0.00 in0.0 mm 0.00 in0.0 mm 0.00 in0.0 mm
03:30 AM 65.7°F18.7°C 63.7°F17.6°C 93% Calm Calm 3.0 mph4.8 kmh 30.22 in1023.4 mb 0.00 in0.0 mm 0.00 in0.0 mm 0.00 in0.0 mm
04:30 AM 64.2°F17.9°C 62.5°F16.9°C 94% 3.0 mph E4.8 kmh E 3.0 mph4.8 kmh 30.23 in1023.7 mb 0.00 in0.0 mm 0.00 in0.0 mm 0.00 in0.0 mm
05:30 AM 64.3°F17.9°C 62.6°F17.0°C 94% 2.0 mph ESE3.2 kmh ESE 3.0 mph4.8 kmh 30.27 in1025.1 mb 0.00 in0.0 mm 0.00 in0.0 mm 0.00 in0.0 mm
06:30 AM 64.2°F17.9°C 62.8°F17.1°C 95% 2.0 mph ESE3.2 kmh ESE 6.1 mph9.8 kmh 30.29 in1025.7 mb 0.00 in0.0 mm 0.00 in0.0 mm 0.00 in0.0 mm
07:30 AM 64.4°F18.0°C 62.7°F17.1°C 94% 2.0 mph SE3.2 kmh SE 3.0 mph4.8 kmh 30.30 in1026.1 mb 0.00 in0.0 mm 0.00 in0.0 mm 0.00 in0.0 mm
08:30 AM 64.9°F18.3°C 62.9°F17.2°C 93% 1.0 mph ENE1.6 kmh ENE 5.1 mph8.2 kmh 30.30 in1026.1 mb 0.00 in0.0 mm 0.00 in0.0 mm 0.00 in0.0 mm
09:30 AM 66.7°F19.3°C 64.0°F17.8°C 91% 3.0 mph SE4.8 kmh SE 7.1 mph11.4 kmh 30.30 in1026.1 mb 0.00 in0.0 mm 0.00 in0.0 mm 0.00 in0.0 mm
10:30 AM 69.0°F20.6°C 65.0°F18.3°C 87% 3.0 mph E4.8 kmh E 3.0 mph4.8 kmh 30.30 in1026.1 mb 0.00 in0.0 mm 0.00 in0.0 mm 0.00 in0.0 mm
11:30 AM 71.6°F22.0°C 67.2°F19.6°C 86% 6.0 mph E9.7 kmh E 6.1 mph9.8 kmh 30.28 in1025.4 mb 0.00 in0.0 mm 0.00 in0.0 mm 0.00 in0.0 mm
12:30 PM 75.5°F24.2°C 68.9°F20.5°C 80% 9.0 mph NNE14.5 kmh NNE 9.1 mph14.6 kmh 30.25 in1024.4 mb 0.00 in0.0 mm 0.00 in0.0 mm 0.00 in0.0 mm
01:15 PM 78.0°F25.6°C 69.8°F21.0°C 76% 2.0 mph ESE3.2 kmh ESE 7.1 mph11.4 kmh 30.23 in1023.7 mb 0.00 in0.0 mm 0.00 in0.0 mm 0.00 in0.0 mm
02:00 PM 80.4°F26.9°C 71.8°F22.1°C 75% 3.0 mph E4.8 kmh E 3.0 mph4.8 kmh 30.21 in1023.0 mb 0.00 in0.0 mm 0.00 in0.0 mm 0.00 in0.0 mm
03:00 PM 82.8°F28.2°C 72.5°F22.5°C 71% 2.0 mph E3.2 kmh E 3.0 mph4.8 kmh 30.17 in1021.7 mb 0.00 in0.0 mm 0.00 in0.0 mm 0.00 in0.0 mm
03:15 PM 82.9°F28.3°C 72.6°F22.6°C 71% 2.0 mph E3.2 kmh E 3.0 mph4.8 kmh 30.17 in1021.7 mb 0.00 in0.0 mm 0.00 in0.0 mm 0.00 in0.0 mm
03:30 PM 83.5°F28.6°C 73.1°F22.8°C 71% 3.0 mph N4.8 kmh N 5.1 mph8.2 kmh 30.16 in1021.3 mb 0.00 in0.0 mm 0.00 in0.0 mm 0.00 in0.0 mm
03:45 PM 83.5°F28.6°C 73.1°F22.8°C 71% 2.0 mph E3.2 kmh E 4.0 mph6.4 kmh 30.16 in1021.3 mb 0.00 in0.0 mm 0.00 in0.0 mm 0.00 in0.0 mm
04:30 PM 85.9°F29.9°C 66.3°F19.1°C 52% 9.0 mph SW14.5 kmh SW 10.1 mph16.3 kmh 30.15 in1021.0 mb 0.00 in0.0 mm 0.00 in0.0 mm 0.00 in0.0 mm
05:30 PM 83.9°F28.8°C 62.1°F16.7°C 48% 1.0 mph SSW1.6 kmh SSW 7.1 mph11.4 kmh 30.15 in1021.0 mb 0.00 in0.0 mm 0.00 in0.0 mm 0.00 in0.0 mm
06:30 PM 79.0°F26.1°C 61.5°F16.4°C 55% 1.0 mph S1.6 kmh S 3.0 mph4.8 kmh 30.15 in1021.0 mb 0.00 in0.0 mm 0.00 in0.0 mm 0.00 in0.0 mm
07:30 PM 75.9°F24.4°C 60.5°F15.8°C 59% 3.0 mph SSW4.8 kmh SSW 3.0 mph4.8 kmh 30.16 in1021.3 mb 0.00 in0.0 mm 0.00 in0.0 mm 0.00 in0.0 mm
08:30 PM 75.7°F24.3°C 59.4°F15.2°C 57% 2.0 mph S3.2 kmh S 7.1 mph11.4 kmh 30.17 in1021.7 mb 0.00 in0.0 mm 0.00 in0.0 mm 0.00 in0.0 mm
09:30 PM 75.0°F23.9°C 62.0°F16.7°C 64% 4.0 mph SW6.4 kmh SW 5.1 mph8.2 kmh 30.17 in1021.7 mb 0.00 in0.0 mm 0.00 in0.0 mm 0.00 in0.0 mm
10:30 PM 73.9°F23.3°C 63.1°F17.3°C 69% 5.0 mph S8.0 kmh S 8.1 mph13.0 kmh 30.16 in1021.3 mb 0.00 in0.0 mm 0.00 in0.0 mm 0.00 in0.0 mm
11:30 PM 72.7°F22.6°C 64.3°F17.9°C 75% 6.0 mph SW9.7 kmh SW 10.1 mph16.3 kmh 30.16 in1021.3 mb 0.00 in0.0 mm 0.00 in0.0 mm 0.00 in0.0 mm